LPR6 EPKX-EPKX
Flight info
| Callsign | LPR6 |
|---|---|
| Flight time | 0h 5m |
| Altitude | 2000 |
| Route | 50049N01949E |
| Aircraft | EC35/L-SDFGHY/SB1 |
Departure
| Time | 2026-04-29 18:22 |
|---|---|
| Airport | Kokotowie LPR HEMS Heliport (EPKX) |
Arrival
| Time | 2026-04-29 18:28 |
|---|---|
| Airport | Kokotowie LPR HEMS Heliport (EPKX) |
| Time | Latitude | Longitude | Altitude | Speed | Heading |
|---|---|---|---|---|---|
| 2026-04-29 18:05 | 50.02238 | 20.07033 | 657 ft | 0 kts | 150° |
| 2026-04-29 18:09 | 50.02237 | 20.07033 | 664 ft | 0 kts | 150° |
| 2026-04-29 18:10 | 50.02238 | 20.07033 | 664 ft | 0 kts | 150° |
| 2026-04-29 18:21 | 50.02237 | 20.07033 | 664 ft | 1 kts | 152° |
| 2026-04-29 18:21 | 50.02258 | 20.07002 | 725 ft | 9 kts | 151° |
| 2026-04-29 18:21 | 50.02316 | 20.06938 | 844 ft | 15 kts | 151° |
| 2026-04-29 18:21 | 50.02402 | 20.06915 | 1036 ft | 22 kts | 50° |
| 2026-04-29 18:22 | 50.02690 | 20.06954 | 1107 ft | 69 kts | 337° |
| 2026-04-29 18:22 | 50.02960 | 20.06233 | 1241 ft | 92 kts | 287° |
| 2026-04-29 18:22 | 50.03085 | 20.05170 | 1288 ft | 106 kts | 286° |
| 2026-04-29 18:22 | 50.03231 | 20.04041 | 1385 ft | 109 kts | 289° |
| 2026-04-29 18:23 | 50.03422 | 20.02978 | 1617 ft | 102 kts | 290° |
| 2026-04-29 18:23 | 50.03514 | 20.01905 | 1750 ft | 98 kts | 282° |
| 2026-04-29 18:23 | 50.03569 | 20.00866 | 1806 ft | 97 kts | 281° |
| 2026-04-29 18:23 | 50.03608 | 19.99868 | 1992 ft | 89 kts | 281° |
| 2026-04-29 18:24 | 50.03655 | 19.98776 | 1904 ft | 114 kts | 282° |
| 2026-04-29 18:24 | 50.03828 | 19.97450 | 1872 ft | 134 kts | 287° |
| 2026-04-29 18:24 | 50.04015 | 19.96040 | 1897 ft | 135 kts | 285° |
| 2026-04-29 18:24 | 50.04200 | 19.94618 | 1862 ft | 131 kts | 289° |
| 2026-04-29 18:25 | 50.04401 | 19.93300 | 1984 ft | 124 kts | 288° |
| 2026-04-29 18:25 | 50.04601 | 19.91979 | 2050 ft | 127 kts | 290° |
| 2026-04-29 18:25 | 50.04864 | 19.90638 | 1993 ft | 132 kts | 294° |
| 2026-04-29 18:25 | 50.05181 | 19.89302 | 1906 ft | 128 kts | 296° |
| 2026-04-29 18:26 | 50.05501 | 19.88081 | 1923 ft | 119 kts | 297° |
| 2026-04-29 18:26 | 50.05813 | 19.86976 | 1922 ft | 115 kts | 300° |
| 2026-04-29 18:26 | 50.06082 | 19.85883 | 1934 ft | 98 kts | 298° |
| 2026-04-29 18:26 | 50.06323 | 19.84902 | 1875 ft | 100 kts | 301° |
| 2026-04-29 18:27 | 50.06624 | 19.83960 | 1811 ft | 91 kts | 304° |
| 2026-04-29 18:27 | 50.06878 | 19.83172 | 1772 ft | 73 kts | 307° |
| 2026-04-29 18:27 | 50.07132 | 19.82519 | 1547 ft | 71 kts | 307° |
| 2026-04-29 18:27 | 50.07309 | 19.81841 | 1316 ft | 61 kts | 294° |
| 2026-04-29 18:28 | 50.07422 | 19.81294 | 1150 ft | 43 kts | 312° |
| 2026-04-29 18:28 | 50.07588 | 19.81027 | 1038 ft | 33 kts | 340° |
| 2026-04-29 18:28 | 50.07805 | 19.80909 | 903 ft | 30 kts | 349° |
| 2026-04-29 18:28 | 50.07961 | 19.80862 | 832 ft | 18 kts | 352° |
| 2026-04-29 18:29 | 50.08024 | 19.80844 | 778 ft | 2 kts | 352° |
| 2026-04-29 18:29 | 50.08025 | 19.80843 | 773 ft | 0 kts | 349° |
| 2026-04-29 18:36 | 50.08025 | 19.80851 | 810 ft | 1 kts | 351° |
| 2026-04-29 18:36 | 50.08008 | 19.80855 | 856 ft | 4 kts | 352° |
| 2026-04-29 18:36 | 50.07963 | 19.81115 | 1000 ft | 56 kts | 102° |
| 2026-04-29 18:36 | 50.07690 | 19.81840 | 1205 ft | 98 kts | 111° |
| 2026-04-29 18:37 | 50.07283 | 19.82891 | 1336 ft | 120 kts | 110° |
| 2026-04-29 18:37 | 50.06932 | 19.84125 | 1468 ft | 129 kts | 107° |
| 2026-04-29 18:37 | 50.06633 | 19.85486 | 1586 ft | 134 kts | 98° |
| 2026-04-29 18:37 | 50.06495 | 19.86923 | 1605 ft | 138 kts | 91° |
| 2026-04-29 18:38 | 50.06437 | 19.88446 | 1615 ft | 138 kts | 86° |
| 2026-04-29 18:38 | 50.06445 | 19.89884 | 1612 ft | 131 kts | 86° |
| 2026-04-29 18:38 | 50.06448 | 19.91274 | 1525 ft | 128 kts | 86° |
| 2026-04-29 18:38 | 50.06438 | 19.92544 | 1550 ft | 109 kts | 86° |
| 2026-04-29 18:39 | 50.06449 | 19.93549 | 1431 ft | 78 kts | 86° |
| 2026-04-29 18:39 | 50.06447 | 19.94227 | 1315 ft | 48 kts | 85° |
| 2026-04-29 18:39 | 50.06441 | 19.94665 | 1197 ft | 40 kts | 81° |
| 2026-04-29 18:39 | 50.06447 | 19.95069 | 1057 ft | 32 kts | 72° |
| 2026-04-29 18:40 | 50.06467 | 19.95323 | 953 ft | 17 kts | 74° |
| 2026-04-29 18:40 | 50.06486 | 19.95488 | 888 ft | 16 kts | 79° |
| 2026-04-29 18:40 | 50.06496 | 19.95587 | 793 ft | 3 kts | 82° |
| 2026-04-29 18:40 | 50.06499 | 19.95621 | 758 ft | 1 kts | 82° |
| 2026-04-29 18:41 | 50.06499 | 19.95623 | 756 ft | 0 kts | 81° |
| 2026-04-29 18:47 | 50.06497 | 19.95626 | 764 ft | 1 kts | 80° |
| 2026-04-29 18:47 | 50.06498 | 19.95605 | 807 ft | 6 kts | 80° |
| 2026-04-29 18:47 | 50.06431 | 19.95680 | 963 ft | 43 kts | 120° |
| 2026-04-29 18:47 | 50.06154 | 19.96344 | 1128 ft | 99 kts | 116° |
| 2026-04-29 18:48 | 50.05745 | 19.97374 | 1232 ft | 119 kts | 117° |
| 2026-04-29 18:48 | 50.05260 | 19.98443 | 1351 ft | 125 kts | 124° |
| 2026-04-29 18:48 | 50.04739 | 19.99525 | 1535 ft | 125 kts | 118° |
| 2026-04-29 18:48 | 50.04407 | 20.00802 | 1528 ft | 133 kts | 103° |
| 2026-04-29 18:49 | 50.04168 | 20.02222 | 1440 ft | 140 kts | 99° |
| 2026-04-29 18:49 | 50.03934 | 20.03716 | 1282 ft | 143 kts | 98° |
| 2026-04-29 18:49 | 50.03791 | 20.05161 | 1249 ft | 126 kts | 92° |
| 2026-04-29 18:49 | 50.03653 | 20.06353 | 1235 ft | 99 kts | 99° |
| 2026-04-29 18:50 | 50.03368 | 20.07229 | 1084 ft | 85 kts | 134° |
| 2026-04-29 18:50 | 50.02929 | 20.07740 | 940 ft | 74 kts | 169° |
| 2026-04-29 18:50 | 50.02507 | 20.07647 | 851 ft | 52 kts | 240° |
| 2026-04-29 18:50 | 50.02347 | 20.07251 | 745 ft | 33 kts | 243° |
| 2026-04-29 18:51 | 50.02288 | 20.07055 | 664 ft | 5 kts | 241° |
| 2026-04-29 18:51 | 50.02281 | 20.07036 | 660 ft | 0 kts | 241° |